Time;durP1;ratioP1;P1;durP2;ratioP2;P2;SDS_P1;SDS_P2;PMS_P1;PMS_P2;Temp;Humidity;BMP_temperature;BMP_pressure;BME280_temperature;BME280_humidity;BME280_pressure;Samples;Min_cycle;Max_cycle;Signal;HPM_P1;HPM_P2
2022/03/02 00:01:42;;;;;;;31.02;24.95;;;6.30;99.90;;;;;;5065191;28;20032;-50
2022/03/02 00:04:07;;;;;;;33.78;24.27;;;6.40;99.90;;;;;;5067609;28;20029;-50
2022/03/02 00:06:33;;;;;;;33.08;24.40;;;6.30;99.90;;;;;;5062186;28;20105;-49
2022/03/02 00:08:59;;;;;;;28.38;22.42;;;6.30;99.90;;;;;;5063754;28;20048;-53
2022/03/02 00:11:27;;;;;;;31.05;24.70;;;6.30;99.90;;;;;;5062000;28;20037;-49
2022/03/02 00:13:53;;;;;;;29.80;23.25;;;6.30;99.90;;;;;;5064106;28;20353;-50
2022/03/02 00:16:19;;;;;;;31.88;24.30;;;6.30;99.90;;;;;;5070212;28;20082;-49
2022/03/02 00:18:46;;;;;;;31.42;24.15;;;6.30;99.90;;;;;;5063092;28;20475;-51
2022/03/02 00:21:11;;;;;;;31.23;23.77;;;6.30;99.90;;;;;;5068448;28;20501;-52
2022/03/02 00:23:37;;;;;;;34.20;25.38;;;6.30;99.90;;;;;;5073768;28;20166;-51
2022/03/02 00:26:03;;;;;;;30.38;24.23;;;6.30;99.90;;;;;;5053468;28;20040;-50
2022/03/02 00:28:28;;;;;;;31.80;24.55;;;6.30;99.90;;;;;;5067344;28;20131;-50
2022/03/02 00:30:54;;;;;;;30.92;24.92;;;6.30;99.90;;;;;;5025212;28;20040;-51
2022/03/02 00:33:20;;;;;;;29.40;22.98;;;6.30;99.90;;;;;;5062025;28;20044;-50
2022/03/02 00:35:46;;;;;;;31.45;25.23;;;6.20;99.90;;;;;;5044485;28;20112;-49
2022/03/02 00:38:11;;;;;;;33.42;24.83;;;6.20;99.90;;;;;;5060707;28;20354;-49
2022/03/02 00:40:39;;;;;;;31.83;24.75;;;6.20;99.90;;;;;;5046134;28;20410;-50
2022/03/02 00:43:05;;;;;;;35.87;25.83;;;6.20;99.90;;;;;;5062847;28;20053;-49
2022/03/02 00:45:31;;;;;;;32.75;25.50;;;6.20;99.90;;;;;;5064221;28;20335;-49
2022/03/02 00:47:58;;;;;;;30.40;24.50;;;6.20;99.90;;;;;;5065243;28;20047;-50
2022/03/02 00:50:25;;;;;;;35.70;24.90;;;6.20;99.90;;;;;;5052634;28;20516;-49
2022/03/02 00:52:51;;;;;;;31.40;25.00;;;6.10;99.90;;;;;;5066435;28;20052;-49
2022/03/02 00:55:16;;;;;;;32.97;26.00;;;6.20;99.90;;;;;;5069461;28;20049;-52
2022/03/02 00:57:42;;;;;;;33.85;25.23;;;6.10;99.90;;;;;;5063124;28;20050;-49
2022/03/02 01:00:10;;;;;;;30.85;25.23;;;6.10;99.90;;;;;;5063703;28;20075;-50
2022/03/02 01:02:36;;;;;;;32.95;25.67;;;6.10;99.90;;;;;;5051235;28;20131;-50
2022/03/02 01:05:03;;;;;;;32.50;24.92;;;6.10;99.90;;;;;;5066720;28;20040;-50
2022/03/02 01:07:28;;;;;;;32.75;26.17;;;6.00;99.90;;;;;;5060601;28;20139;-51
2022/03/02 01:09:54;;;;;;;33.97;25.98;;;6.00;99.90;;;;;;5066146;28;20569;-50
2022/03/02 01:12:19;;;;;;;30.65;25.08;;;6.00;99.90;;;;;;5063489;28;20042;-49
2022/03/02 01:14:45;;;;;;;30.77;25.30;;;6.00;99.90;;;;;;5044793;28;20082;-50
2022/03/02 01:17:10;;;;;;;31.17;26.08;;;6.00;99.90;;;;;;5043509;28;20048;-53
2022/03/02 01:19:38;;;;;;;30.38;25.23;;;6.00;99.90;;;;;;5075842;28;20040;-50
2022/03/02 01:22:05;;;;;;;33.03;26.33;;;6.00;99.90;;;;;;5067041;28;20480;-50
2022/03/02 01:24:30;;;;;;;32.60;25.65;;;6.00;99.90;;;;;;5064313;28;20472;-51
2022/03/02 01:26:56;;;;;;;33.03;25.88;;;5.90;99.90;;;;;;5062585;28;20044;-50
2022/03/02 01:29:23;;;;;;;31.85;26.30;;;6.00;99.90;;;;;;5062774;28;20175;-50
2022/03/02 01:31:49;;;;;;;33.58;26.20;;;5.90;99.90;;;;;;5064753;28;20040;-50
2022/03/02 01:34:14;;;;;;;31.50;25.85;;;6.00;99.90;;;;;;5065565;28;20106;-49
2022/03/02 01:36:40;;;;;;;31.23;24.88;;;5.90;99.90;;;;;;5063022;28;20048;-49
2022/03/02 01:39:05;;;;;;;33.92;26.33;;;5.90;99.90;;;;;;5066055;28;20047;-51
2022/03/02 01:41:31;;;;;;;33.13;26.48;;;5.90;99.90;;;;;;5066195;28;20143;-49
2022/03/02 01:43:57;;;;;;;33.10;25.52;;;5.90;99.90;;;;;;5066063;28;20037;-49
2022/03/02 01:46:23;;;;;;;32.70;26.25;;;5.90;99.90;;;;;;5065999;28;20605;-51
2022/03/02 01:48:49;;;;;;;32.80;25.67;;;5.90;99.90;;;;;;5068911;28;20036;-51
2022/03/02 01:51:15;;;;;;;31.80;25.67;;;5.90;99.90;;;;;;5066485;28;20148;-50
2022/03/02 01:53:41;;;;;;;36.20;26.15;;;5.80;99.90;;;;;;5072267;28;20478;-50
2022/03/02 01:56:07;;;;;;;33.53;25.65;;;5.80;99.90;;;;;;5069661;28;20040;-50
2022/03/02 01:58:33;;;;;;;34.45;25.55;;;5.80;99.90;;;;;;5051544;28;20055;-53
2022/03/02 02:01:00;;;;;;;32.60;24.58;;;5.80;99.90;;;;;;5065714;28;20033;-51
2022/03/02 02:03:27;;;;;;;32.78;26.02;;;5.80;99.90;;;;;;5047139;28;20059;-49
2022/03/02 02:05:53;;;;;;;32.38;25.20;;;5.70;99.90;;;;;;5068145;28;20044;-49
2022/03/02 02:08:18;;;;;;;31.88;25.20;;;5.70;99.90;;;;;;5074758;28;20040;-53
2022/03/02 02:10:44;;;;;;;31.65;25.60;;;5.70;99.90;;;;;;5068814;28;20043;-50
2022/03/02 02:13:10;;;;;;;35.60;26.35;;;5.70;99.90;;;;;;5067531;28;20512;-48
2022/03/02 02:15:35;;;;;;;35.95;25.85;;;5.70;99.90;;;;;;5049461;28;20037;-50
2022/03/02 02:18:01;;;;;;;31.55;25.50;;;5.70;99.90;;;;;;5068853;28;20105;-50
2022/03/02 02:20:27;;;;;;;31.90;26.10;;;5.60;99.90;;;;;;5068137;28;20037;-51
2022/03/02 02:22:53;;;;;;;32.28;25.75;;;5.70;99.90;;;;;;5066339;28;21024;-50
2022/03/02 02:25:18;;;;;;;35.72;26.52;;;5.60;99.90;;;;;;5067267;28;20055;-49
2022/03/02 02:27:45;;;;;;;33.83;26.17;;;5.60;99.90;;;;;;5066067;28;20029;-50
2022/03/02 02:30:13;;;;;;;32.78;25.23;;;5.60;99.90;;;;;;5065576;28;20044;-52
2022/03/02 02:32:39;;;;;;;34.50;27.48;;;5.60;99.90;;;;;;5065970;28;20032;-50
2022/03/02 02:35:08;;;;;;;33.88;25.77;;;5.60;99.90;;;;;;5067467;28;20094;-50
2022/03/02 02:37:34;;;;;;;36.05;26.90;;;5.50;99.90;;;;;;5047213;28;20470;-50
2022/03/02 02:40:04;;;;;;;34.28;27.08;;;5.60;99.90;;;;;;5067319;28;20044;-50
2022/03/02 02:42:29;;;;;;;35.55;26.05;;;5.50;99.90;;;;;;5066117;28;20101;-50
2022/03/02 02:44:55;;;;;;;34.10;27.00;;;5.50;99.90;;;;;;5068073;28;20044;-50
2022/03/02 02:47:21;;;;;;;36.35;28.83;;;5.60;99.90;;;;;;5064799;28;20045;-49
2022/03/02 02:52:37;;;;;;;33.78;26.95;;;5.50;99.90;;;;;;4953611;22;20672;-71
2022/03/02 02:55:07;;;;;;;35.13;26.23;;;5.50;99.90;;;;;;5082762;28;20097;-71
2022/03/02 02:57:33;;;;;;;35.60;25.08;;;5.50;99.90;;;;;;5086704;28;20036;-71
2022/03/02 02:59:58;;;;;;;32.85;25.63;;;5.50;99.90;;;;;;5085407;28;20028;-72
2022/03/02 03:02:24;;;;;;;35.63;25.70;;;5.50;99.90;;;;;;5087109;28;20157;-71
2022/03/02 03:04:49;;;;;;;36.72;27.10;;;5.50;99.90;;;;;;5087229;28;20054;-70
2022/03/02 03:07:15;;;;;;;32.80;26.77;;;5.50;99.90;;;;;;5089550;28;20044;-69
2022/03/02 03:09:41;;;;;;;35.60;27.08;;;5.50;99.90;;;;;;5066980;28;20154;-70
2022/03/02 03:12:06;;;;;;;33.83;26.45;;;5.50;99.90;;;;;;5089521;28;20049;-69
2022/03/02 03:14:32;;;;;;;35.60;25.77;;;5.40;99.90;;;;;;5074099;28;20048;-69
2022/03/02 03:16:58;;;;;;;32.72;26.45;;;5.40;99.90;;;;;;5089381;28;20040;-69
2022/03/02 03:19:23;;;;;;;35.58;26.63;;;5.40;99.90;;;;;;5090083;28;20448;-67
2022/03/02 03:21:49;;;;;;;44.20;27.70;;;5.40;99.90;;;;;;5092169;28;20505;-67
2022/03/02 03:24:14;;;;;;;32.55;25.90;;;5.40;99.90;;;;;;5056234;28;20327;-68
2022/03/02 03:26:40;;;;;;;37.33;26.88;;;5.40;99.90;;;;;;5088213;28;20514;-68
2022/03/02 03:29:05;;;;;;;34.78;26.80;;;5.40;99.90;;;;;;5087464;28;20127;-68
2022/03/02 03:31:31;;;;;;;37.13;26.27;;;5.40;99.90;;;;;;5090076;28;20093;-68
2022/03/02 03:33:56;;;;;;;36.22;27.25;;;5.30;99.90;;;;;;5089623;28;20473;-69
2022/03/02 03:36:22;;;;;;;37.10;26.67;;;5.30;99.90;;;;;;5089075;28;20596;-67
2022/03/02 03:38:47;;;;;;;37.08;27.00;;;5.30;99.90;;;;;;5088426;28;20040;-68
2022/03/02 03:41:13;;;;;;;38.22;25.80;;;5.30;99.90;;;;;;5083929;28;20039;-68
2022/03/02 03:43:39;;;;;;;36.38;26.77;;;5.30;99.90;;;;;;5085647;28;20032;-69
2022/03/02 03:46:05;;;;;;;37.50;27.65;;;5.20;99.90;;;;;;5066272;28;20055;-68
2022/03/02 03:48:30;;;;;;;37.83;27.98;;;5.20;99.90;;;;;;5048326;28;20126;-68
2022/03/02 03:50:56;;;;;;;35.85;27.42;;;5.20;99.90;;;;;;5065055;28;20052;-69
2022/03/02 03:53:22;;;;;;;34.33;26.13;;;5.10;99.90;;;;;;5086300;28;20298;-68
2022/03/02 03:55:48;;;;;;;36.88;27.13;;;5.10;99.90;;;;;;5070470;28;20081;-68
2022/03/02 03:58:14;;;;;;;35.72;26.77;;;5.00;99.90;;;;;;5066181;28;20043;-69
2022/03/02 04:00:39;;;;;;;36.28;27.70;;;5.00;99.90;;;;;;5083626;28;20044;-68
2022/03/02 04:03:05;;;;;;;39.10;27.67;;;4.90;99.90;;;;;;5068014;28;20512;-68
2022/03/02 04:05:31;;;;;;;37.63;27.08;;;4.90;99.90;;;;;;5084802;28;20044;-68
2022/03/02 04:07:56;;;;;;;35.03;25.77;;;4.80;99.90;;;;;;5088777;28;20109;-68
2022/03/02 04:10:22;;;;;;;36.78;26.77;;;4.80;99.90;;;;;;5085992;28;20227;-69
2022/03/02 04:12:47;;;;;;;37.90;27.23;;;4.80;99.90;;;;;;5082676;28;20091;-69
2022/03/02 04:15:14;;;;;;;36.83;27.48;;;4.80;99.90;;;;;;5063977;28;20048;-69
2022/03/02 04:17:39;;;;;;;36.30;26.65;;;4.70;99.90;;;;;;5084235;28;20086;-69
2022/03/02 04:20:06;;;;;;;36.72;26.05;;;4.70;99.90;;;;;;5081797;28;20032;-69
2022/03/02 04:22:32;;;;;;;35.58;26.65;;;4.70;99.90;;;;;;5065506;28;20102;-69
2022/03/02 04:24:58;;;;;;;37.90;26.52;;;4.70;99.90;;;;;;5081562;28;20090;-69
2022/03/02 04:27:23;;;;;;;38.25;27.67;;;4.70;99.90;;;;;;5047581;28;20036;-69
2022/03/02 04:29:49;;;;;;;37.28;27.63;;;4.70;99.90;;;;;;5085834;28;20063;-69
2022/03/02 04:32:14;;;;;;;38.28;26.33;;;4.70;99.90;;;;;;5065044;28;20071;-69
2022/03/02 04:34:40;;;;;;;37.30;26.60;;;4.70;99.90;;;;;;5083110;28;20394;-69
2022/03/02 04:37:06;;;;;;;36.10;28.08;;;4.60;99.90;;;;;;5065190;28;20127;-69
2022/03/02 04:39:32;;;;;;;37.53;28.33;;;4.60;99.90;;;;;;5065531;28;20507;-68
2022/03/02 04:41:58;;;;;;;34.10;26.63;;;4.70;99.90;;;;;;5066937;28;20484;-69
2022/03/02 04:44:24;;;;;;;37.50;28.17;;;4.60;99.90;;;;;;5081525;28;20110;-70
2022/03/02 04:46:51;;;;;;;35.17;25.65;;;4.60;99.90;;;;;;5086105;28;20044;-70
2022/03/02 04:49:20;;;;;;;35.38;24.35;;;4.70;99.90;;;;;;5083482;28;20093;-70
2022/03/02 04:51:47;;;;;;;37.13;26.75;;;4.70;99.90;;;;;;5048102;28;20523;-68
2022/03/02 04:55:05;;;;;;;35.50;26.83;;;4.70;99.90;;;;;;5065637;28;20079;-68
2022/03/02 04:57:04;;;;;;;37.60;26.60;;;4.70;99.90;;;;;;5067791;28;20044;-69
2022/03/02 04:59:30;;;;;;;35.90;26.20;;;4.70;99.90;;;;;;5078862;28;20429;-69
2022/03/02 05:01:56;;;;;;;38.00;26.95;;;4.60;99.90;;;;;;5049696;28;20119;-69
2022/03/02 05:04:21;;;;;;;35.90;25.75;;;4.70;99.90;;;;;;5066787;28;20140;-69
2022/03/02 05:06:47;;;;;;;34.10;26.38;;;4.70;99.90;;;;;;5084659;28;20063;-70
2022/03/02 05:09:13;;;;;;;38.47;27.80;;;4.70;99.90;;;;;;5068400;28;20772;-68
2022/03/02 05:11:38;;;;;;;34.67;27.13;;;4.70;99.90;;;;;;5068777;28;20068;-69
2022/03/02 05:14:04;;;;;;;35.15;25.33;;;4.70;99.90;;;;;;5068161;28;20044;-69
2022/03/02 05:16:30;;;;;;;35.22;26.67;;;4.70;99.90;;;;;;5063819;28;20032;-69
2022/03/02 05:18:56;;;;;;;38.00;26.00;;;4.60;99.90;;;;;;5065658;28;20082;-69
2022/03/02 05:21:22;;;;;;;37.97;28.42;;;4.70;99.90;;;;;;5085476;28;20048;-68
2022/03/02 05:23:47;;;;;;;36.15;28.00;;;4.70;99.90;;;;;;5086658;28;20439;-68
2022/03/02 05:26:13;;;;;;;37.47;27.75;;;4.60;99.90;;;;;;5086574;28;20044;-69
2022/03/02 05:28:38;;;;;;;34.83;26.90;;;4.60;99.90;;;;;;5088038;28;20068;-70
2022/03/02 05:31:04;;;;;;;41.03;27.45;;;4.60;99.90;;;;;;5086372;28;20075;-69
2022/03/02 05:33:29;;;;;;;37.35;26.95;;;4.60;99.90;;;;;;5081527;28;20059;-69
2022/03/02 05:35:55;;;;;;;37.88;27.65;;;4.60;99.90;;;;;;5082632;28;20043;-68
2022/03/02 05:38:20;;;;;;;37.45;27.48;;;4.60;99.90;;;;;;5083367;28;20048;-69
2022/03/02 05:40:46;;;;;;;37.05;26.38;;;4.60;99.90;;;;;;5066957;28;20075;-69
2022/03/02 05:43:12;;;;;;;35.65;26.95;;;4.60;99.90;;;;;;5084451;28;20364;-70
2022/03/02 05:45:37;;;;;;;36.65;27.25;;;4.50;99.90;;;;;;5063412;28;20050;-70
2022/03/02 05:48:04;;;;;;;36.28;26.17;;;4.50;99.90;;;;;;5065217;28;20124;-70
2022/03/02 05:50:30;;;;;;;35.03;25.80;;;4.50;99.90;;;;;;5067069;28;20354;-71
2022/03/02 05:52:55;;;;;;;38.25;23.77;;;4.50;99.90;;;;;;5066692;28;20032;-68
2022/03/02 05:55:21;;;;;;;36.63;27.60;;;4.50;99.90;;;;;;5066806;28;20051;-67
2022/03/02 05:57:47;;;;;;;34.97;24.63;;;4.50;99.90;;;;;;5064605;28;20040;-68
2022/03/02 06:00:13;;;;;;;38.00;26.50;;;4.50;99.90;;;;;;5081222;28;20467;-67
2022/03/02 06:02:39;;;;;;;37.35;25.88;;;4.50;99.90;;;;;;5068123;28;20104;-67
2022/03/02 06:05:09;;;;;;;37.38;26.48;;;4.50;99.90;;;;;;5038578;28;20066;-69
2022/03/02 06:07:34;;;;;;;40.38;27.80;;;4.50;99.90;;;;;;5081154;28;20445;-68
2022/03/02 06:10:00;;;;;;;35.95;27.10;;;4.50;99.90;;;;;;5064557;28;20044;-68
2022/03/02 06:12:26;;;;;;;35.03;25.85;;;4.40;99.90;;;;;;5065792;28;20082;-68
2022/03/02 06:14:52;;;;;;;35.97;26.95;;;4.50;99.90;;;;;;5086762;28;20052;-68
2022/03/02 06:17:18;;;;;;;36.97;27.15;;;4.50;99.90;;;;;;5081102;28;20063;-68
2022/03/02 06:19:44;;;;;;;33.10;26.08;;;4.50;99.90;;;;;;5066452;28;20084;-68
2022/03/02 06:22:10;;;;;;;35.40;26.00;;;4.50;99.90;;;;;;5082485;28;20504;-68
2022/03/02 06:24:36;;;;;;;37.40;27.88;;;4.40;99.90;;;;;;5087688;28;20128;-68
2022/03/02 06:27:02;;;;;;;39.05;27.77;;;4.50;99.90;;;;;;5085471;28;20131;-68
2022/03/02 06:29:27;;;;;;;35.78;26.27;;;4.50;99.90;;;;;;5071730;28;20040;-68
2022/03/02 06:31:53;;;;;;;36.45;26.55;;;4.50;99.90;;;;;;5068311;28;20105;-67
2022/03/02 06:34:19;;;;;;;36.90;27.35;;;4.50;99.90;;;;;;5087944;28;20044;-68
2022/03/02 06:36:49;;;;;;;35.65;25.70;;;4.50;99.90;;;;;;5066517;28;20056;-71
2022/03/02 06:39:16;;;;;;;38.40;27.40;;;4.50;99.90;;;;;;5092981;28;20047;-70
2022/03/02 06:42:04;;;;;;;36.47;26.70;;;4.50;99.90;;;;;;5087901;28;20120;-69
2022/03/02 06:44:38;;;;;;;;;;;4.50;99.90;;;;;;5086737;28;20076;-68
2022/03/02 06:47:10;;;;;;;34.55;24.42;;;4.50;99.90;;;;;;5067639;28;20386;-73
2022/03/02 06:49:59;;;;;;;37.67;27.13;;;4.50;99.90;;;;;;5086568;28;20486;-69
2022/03/02 06:52:31;;;;;;;36.88;25.83;;;4.60;99.90;;;;;;5067948;28;20080;-72
2022/03/02 06:54:59;;;;;;;35.10;25.08;;;4.50;99.90;;;;;;5071754;28;20036;-74
2022/03/02 06:57:28;;;;;;;39.25;26.77;;;4.60;99.90;;;;;;5069243;28;20058;-70
2022/03/02 06:59:58;;;;;;;36.90;26.05;;;4.60;99.90;;;;;;5065640;28;20056;-72
2022/03/02 07:02:33;;;;;;;32.80;24.40;;;4.60;99.90;;;;;;5057972;28;20036;-74
2022/03/02 07:05:01;;;;;;;38.60;27.50;;;4.70;99.90;;;;;;5067404;28;20056;-72
2022/03/02 07:07:27;;;;;;;37.67;27.60;;;4.70;99.90;;;;;;5088421;28;20093;-72
2022/03/02 07:09:54;;;;;;;38.20;26.02;;;4.70;99.90;;;;;;5086410;28;20991;-72
2022/03/02 07:12:20;;;;;;;37.47;27.00;;;4.80;99.90;;;;;;5089567;28;20131;-72
2022/03/02 07:14:46;;;;;;;37.05;26.13;;;4.80;99.90;;;;;;5083595;28;20150;-72
2022/03/02 07:17:12;;;;;;;39.38;27.02;;;4.80;99.90;;;;;;5066880;28;20325;-72
2022/03/02 07:19:37;;;;;;;34.97;25.90;;;4.80;99.90;;;;;;5066734;28;20040;-72
2022/03/02 07:22:05;;;;;;;38.38;26.55;;;4.90;99.90;;;;;;5054378;28;20414;-72
2022/03/02 07:24:40;;;;;;;36.75;26.67;;;4.90;99.90;;;;;;5049260;28;20044;-72
2022/03/02 07:27:05;;;;;;;34.70;25.42;;;4.90;99.90;;;;;;5087326;28;20060;-70
2022/03/02 07:29:34;;;;;;;33.80;25.98;;;5.00;99.90;;;;;;5084714;28;20162;-71
2022/03/02 07:32:02;;;;;;;37.08;26.42;;;5.00;99.90;;;;;;5085070;28;20040;-73
2022/03/02 07:34:30;;;;;;;34.90;26.03;;;5.00;99.90;;;;;;5067901;28;20112;-72
2022/03/02 07:36:59;;;;;;;35.92;25.92;;;5.10;99.90;;;;;;5071481;28;20120;-73
2022/03/02 07:39:25;;;;;;;30.90;24.67;;;5.10;99.90;;;;;;5066928;28;20044;-72
2022/03/02 07:41:51;;;;;;;33.85;26.85;;;5.10;99.90;;;;;;5066397;28;20051;-72
2022/03/02 07:44:20;;;;;;;34.65;26.13;;;5.20;99.90;;;;;;5066221;28;20063;-72
2022/03/02 07:46:47;;;;;;;33.58;24.70;;;5.20;99.90;;;;;;5065114;28;20074;-72
2022/03/02 07:49:13;;;;;;;33.17;24.98;;;5.20;99.90;;;;;;5068946;28;20186;-73
2022/03/02 07:51:40;;;;;;;36.60;25.67;;;5.30;99.90;;;;;;5088922;28;20188;-72
2022/03/02 07:54:06;;;;;;;33.90;23.80;;;5.30;99.90;;;;;;5070737;28;20127;-72
2022/03/02 07:56:33;;;;;;;32.92;24.77;;;5.40;99.90;;;;;;5066819;28;20178;-73
2022/03/02 07:59:03;;;;;;;29.83;22.63;;;5.40;99.90;;;;;;5069537;28;20040;-72
2022/03/02 08:01:31;;;;;;;33.85;24.45;;;5.40;99.90;;;;;;5071657;28;20044;-72
2022/03/02 08:03:58;;;;;;;32.47;24.02;;;5.50;99.90;;;;;;5057922;28;20048;-72
2022/03/02 08:06:24;;;;;;;32.35;24.38;;;5.60;99.90;;;;;;5067584;28;20348;-72
2022/03/02 08:08:51;;;;;;;35.50;25.40;;;5.70;99.90;;;;;;5051710;28;20086;-72
2022/03/02 08:11:17;;;;;;;31.73;25.08;;;5.70;99.90;;;;;;5052780;28;20483;-72
2022/03/02 08:13:43;;;;;;;31.42;25.02;;;5.80;99.90;;;;;;5065329;28;20139;-72
2022/03/02 08:16:08;;;;;;;33.70;24.60;;;6.00;99.90;;;;;;5048556;28;20126;-72
2022/03/02 08:18:35;;;;;;;31.20;25.05;;;6.20;99.90;;;;;;5062849;28;20051;-73
2022/03/02 08:21:02;;;;;;;33.13;24.42;;;6.30;99.90;;;;;;5063287;28;20035;-73
2022/03/02 08:23:36;;;;;;;32.65;24.45;;;6.30;99.90;;;;;;5082199;28;20065;-72
2022/03/02 08:26:03;;;;;;;33.40;23.80;;;6.50;99.90;;;;;;5063980;28;20185;-72
2022/03/02 08:28:33;;;;;;;32.30;24.23;;;6.60;99.90;;;;;;5081539;28;20036;-73
2022/03/02 08:30:59;;;;;;;32.75;23.75;;;6.70;99.90;;;;;;5062764;28;20031;-73
2022/03/02 08:33:27;;;;;;;32.78;24.15;;;6.70;99.90;;;;;;5062607;28;20048;-72
2022/03/02 08:35:54;;;;;;;32.40;23.58;;;6.70;99.90;;;;;;5077437;28;20613;-72
2022/03/02 08:38:21;;;;;;;30.70;24.13;;;6.80;99.90;;;;;;5062073;28;20603;-73
2022/03/02 08:40:47;;;;;;;29.42;23.42;;;6.90;99.90;;;;;;5061395;28;20486;-73
2022/03/02 08:43:16;;;;;;;29.00;19.10;;;6.90;99.90;;;;;;5065741;28;20063;-72
2022/03/02 08:45:47;;;;;;;27.85;20.65;;;7.00;99.90;;;;;;5080394;28;20348;-73
2022/03/02 08:48:15;;;;;;;26.20;20.48;;;7.10;99.90;;;;;;5081822;28;20093;-73
2022/03/02 08:50:42;;;;;;;26.90;20.13;;;7.20;99.90;;;;;;5063723;28;20143;-72
2022/03/02 08:53:09;;;;;;;28.10;20.75;;;7.20;99.90;;;;;;5083837;28;20505;-72
2022/03/02 08:55:34;;;;;;;26.85;19.67;;;7.40;99.90;;;;;;5062333;28;20071;-72
2022/03/02 08:58:00;;;;;;;24.95;19.27;;;7.30;99.90;;;;;;5068636;28;20068;-72
2022/03/02 09:00:26;;;;;;;29.73;19.60;;;7.40;99.90;;;;;;5083606;28;21734;-72
2022/03/02 09:02:52;;;;;;;20.85;17.35;;;7.40;99.90;;;;;;5083700;28;20118;-72
2022/03/02 09:05:18;;;;;;;26.25;19.50;;;7.50;99.90;;;;;;5088330;28;20289;-73
2022/03/02 09:07:45;;;;;;;20.52;13.20;;;7.60;99.90;;;;;;5082536;28;20226;-73
2022/03/02 09:10:11;;;;;;;22.95;17.92;;;7.60;99.90;;;;;;5086448;28;20043;-73
2022/03/02 09:12:39;;;;;;;24.75;18.05;;;7.70;99.90;;;;;;5062816;28;20044;-72
2022/03/02 09:15:05;;;;;;;22.55;17.80;;;7.60;99.90;;;;;;5061033;28;20139;-73
2022/03/02 09:17:31;;;;;;;24.23;18.45;;;7.70;99.90;;;;;;5082123;28;20203;-72
2022/03/02 09:19:57;;;;;;;23.75;17.65;;;7.80;99.90;;;;;;5085143;28;20044;-73
2022/03/02 09:22:24;;;;;;;24.20;18.38;;;7.80;99.90;;;;;;5086573;28;20055;-72
2022/03/02 09:24:50;;;;;;;24.02;18.77;;;7.80;99.90;;;;;;5084998;28;20063;-72
2022/03/02 09:27:18;;;;;;;27.27;17.42;;;7.90;99.90;;;;;;5082898;28;20082;-73
2022/03/02 09:29:46;;;;;;;;;;;7.90;99.90;;;;;;5090181;28;20072;-72
2022/03/02 09:32:13;;;;;;;20.48;15.38;;;7.90;99.90;;;;;;5086376;28;19935;-72
2022/03/02 09:34:43;;;;;;;21.70;16.55;;;7.90;98.50;;;;;;5068023;28;20486;-72
2022/03/02 09:37:10;;;;;;;24.52;17.33;;;7.90;99.00;;;;;;5033890;28;20053;-72
2022/03/02 09:39:35;;;;;;;22.95;16.45;;;8.00;99.90;;;;;;5065354;28;20097;-72
2022/03/02 09:42:14;;;;;;;21.02;15.90;;;8.20;97.70;;;;;;5063403;28;20036;-72
2022/03/02 09:44:39;;;;;;;20.60;14.73;;;8.20;97.10;;;;;;5067510;28;20044;-72
2022/03/02 09:47:09;;;;;;;20.77;16.02;;;8.20;94.50;;;;;;5069225;28;20044;-73
2022/03/02 09:49:35;;;;;;;18.98;14.70;;;8.30;95.60;;;;;;5068112;28;20666;-72
2022/03/02 09:52:05;;;;;;;23.23;16.08;;;8.30;93.40;;;;;;5089550;28;20044;-73
2022/03/02 09:54:36;;;;;;;20.20;15.82;;;8.50;95.40;;;;;;5090382;28;20123;-72
2022/03/02 09:57:04;;;;;;;19.98;14.52;;;8.60;96.00;;;;;;5082471;28;20451;-72
2022/03/02 09:59:35;;;;;;;19.92;15.18;;;8.30;89.60;;;;;;5070425;28;20055;-72
2022/03/02 10:02:02;;;;;;;18.70;13.82;;;8.30;87.50;;;;;;5075686;28;20447;-73
2022/03/02 10:04:29;;;;;;;19.60;14.93;;;8.30;88.00;;;;;;5062444;28;20494;-72
2022/03/02 10:07:26;;;;;;;19.63;15.63;;;8.40;90.50;;;;;;5054780;28;20047;-72
2022/03/02 10:09:48;;;;;;;21.23;14.85;;;8.70;91.20;;;;;;5074440;28;20205;-73
2022/03/02 10:12:19;;;;;;;19.85;15.00;;;8.70;89.00;;;;;;5086535;28;20051;-73
2022/03/02 10:14:45;;;;;;;17.98;12.77;;;8.70;89.40;;;;;;5066548;28;20052;-73
2022/03/02 10:17:11;;;;;;;22.00;16.58;;;8.60;87.00;;;;;;5049693;28;20312;-73
2022/03/02 10:19:52;;;;;;;20.45;16.08;;;8.90;92.50;;;;;;5064940;28;20055;-73
2022/03/02 10:22:25;;;;;;;22.63;17.58;;;9.00;92.50;;;;;;5086237;28;20166;-73
2022/03/02 10:25:00;;;;;;;18.95;15.70;;;9.00;90.20;;;;;;5084392;28;20036;-73
2022/03/02 10:27:38;;;;;;;23.90;15.65;;;9.00;92.10;;;;;;5066986;28;20040;-73
2022/03/02 10:30:09;;;;;;;21.08;16.35;;;9.10;92.20;;;;;;5082684;28;20143;-72
2022/03/02 10:32:39;;;;;;;23.20;18.35;;;9.20;93.70;;;;;;5068760;28;20104;-73
2022/03/02 10:35:08;;;;;;;21.23;16.48;;;9.30;93.10;;;;;;5082211;28;20035;-73
2022/03/02 10:37:41;;;;;;;21.52;16.60;;;9.30;91.30;;;;;;5069251;28;20055;-73
2022/03/02 10:40:16;;;;;;;23.60;17.13;;;9.40;92.40;;;;;;5079842;28;20075;-73
2022/03/02 10:42:55;;;;;;;23.92;18.08;;;9.40;91.10;;;;;;5065030;28;20048;-73
2022/03/02 10:45:30;;;;;;;20.70;16.50;;;9.40;91.00;;;;;;5066869;28;20109;-73
2022/03/02 10:48:38;;;;;;;23.80;16.23;;;9.40;91.30;;;;;;5066675;28;20134;-73
2022/03/02 10:51:05;;;;;;;21.83;17.65;;;9.50;89.00;;;;;;5083319;28;20055;-73
2022/03/02 10:53:36;;;;;;;22.40;17.20;;;9.40;88.70;;;;;;5086393;28;20086;-73
2022/03/02 10:56:04;;;;;;;23.08;17.27;;;9.60;91.50;;;;;;5088172;28;20047;-73
2022/03/02 10:58:30;;;;;;;22.15;17.48;;;9.70;91.10;;;;;;5089107;28;20036;-73
2022/03/02 11:00:58;;;;;;;20.80;16.23;;;9.80;92.00;;;;;;5068392;28;20055;-72
2022/03/02 11:03:26;;;;;;;;;;;9.80;89.60;;;;;;5062234;28;20440;-72
2022/03/02 11:05:52;;;;;;;23.10;16.15;;;9.70;85.50;;;;;;5090025;28;20002;-72
2022/03/02 11:08:20;;;;;;;23.73;16.00;;;9.70;82.20;;;;;;5073525;28;20791;-73
2022/03/02 11:10:46;;;;;;;;;;;9.80;85.70;;;;;;5089907;28;20044;-71
2022/03/02 11:13:13;;;;;;;20.45;16.10;;;9.80;83.40;;;;;;5092463;28;20298;-73
2022/03/02 11:15:54;;;;;;;20.45;15.52;;;9.70;83.20;;;;;;5073979;28;20089;-73
2022/03/02 11:18:42;;;;;;;22.05;15.60;;;9.70;80.70;;;;;;5043812;28;20120;-73
2022/03/02 11:21:09;;;;;;;;;;;9.80;82.70;;;;;;5068226;28;20081;-74
2022/03/02 11:24:05;;;;;;;20.52;15.90;;;9.90;83.80;;;;;;5092116;28;20007;-73
2022/03/02 11:26:37;;;;;;;21.33;15.75;;;10.10;85.70;;;;;;5051500;28;20502;-73
2022/03/02 11:29:11;;;;;;;21.92;15.90;;;10.20;81.90;;;;;;5073079;28;20632;-73
2022/03/02 11:31:43;;;;;;;20.48;15.90;;;10.20;79.80;;;;;;5093148;28;20047;-73
2022/03/02 11:34:18;;;;;;;20.45;15.60;;;10.30;79.60;;;;;;5086251;28;20118;-73
2022/03/02 11:36:53;;;;;;;20.05;15.25;;;10.30;76.60;;;;;;5083142;28;20405;-73
2022/03/02 11:39:22;;;;;;;20.70;15.40;;;10.20;76.50;;;;;;5067763;28;20047;-75
2022/03/02 11:41:52;;;;;;;20.88;15.77;;;10.30;78.40;;;;;;5086238;28;20044;-72
2022/03/02 11:44:37;;;;;;;20.98;15.60;;;10.30;77.50;;;;;;5081566;28;20390;-72
2022/03/02 11:47:04;;;;;;;18.98;15.10;;;10.40;77.30;;;;;;5083987;28;20111;-72
2022/03/02 11:49:54;;;;;;;19.50;15.23;;;10.20;74.10;;;;;;5087341;28;20479;-76
2022/03/02 11:52:25;;;;;;;19.15;15.77;;;10.40;75.80;;;;;;5085180;28;20435;-75
2022/03/02 11:55:05;;;;;;;19.50;13.88;;;10.40;74.00;;;;;;5088993;28;20039;-73
2022/03/02 11:57:39;;;;;;;18.55;15.23;;;10.40;70.10;;;;;;5045003;28;20094;-73
2022/03/02 12:00:16;;;;;;;21.52;15.07;;;10.40;72.80;;;;;;5089886;28;20454;-71
2022/03/02 12:02:50;;;;;;;20.20;15.30;;;10.60;72.30;;;;;;5090997;28;20079;-75
2022/03/02 12:05:19;;;;;;;21.23;15.30;;;10.60;71.60;;;;;;5091231;28;20060;-74
2022/03/02 12:07:50;;;;;;;20.60;15.23;;;10.80;73.30;;;;;;5073085;28;20047;-74
2022/03/02 12:10:23;;;;;;;19.17;15.02;;;10.90;71.90;;;;;;5084970;28;20044;-72
2022/03/02 12:12:50;;;;;;;17.77;14.02;;;10.90;69.00;;;;;;5091323;28;20113;-73
2022/03/02 12:15:18;;;;;;;16.67;11.60;;;10.80;66.80;;;;;;5054156;28;20108;-72
2022/03/02 12:17:44;;;;;;;17.92;13.10;;;10.70;64.50;;;;;;5082266;28;20831;-72
2022/03/02 12:20:11;;;;;;;18.90;14.05;;;10.70;63.80;;;;;;5068313;28;20052;-72
2022/03/02 12:22:42;;;;;;;20.20;13.98;;;10.80;63.90;;;;;;5044216;28;20451;-72
2022/03/02 12:25:11;;;;;;;17.88;12.10;;;10.80;63.70;;;;;;5073054;28;20063;-72
2022/03/02 12:27:37;;;;;;;16.45;13.43;;;10.80;61.50;;;;;;5090955;28;20051;-72
2022/03/02 12:30:10;;;;;;;17.33;13.75;;;10.90;63.50;;;;;;5092078;28;20059;-72
2022/03/02 12:32:39;;;;;;;18.40;14.27;;;10.90;65.00;;;;;;5092282;28;20185;-72
2022/03/02 12:35:07;;;;;;;16.13;12.82;;;11.00;62.30;;;;;;5068594;28;20167;-72
2022/03/02 12:37:33;;;;;;;18.35;13.35;;;10.90;62.20;;;;;;5078861;28;20051;-72
2022/03/02 12:40:00;;;;;;;19.40;14.93;;;10.90;62.50;;;;;;5088110;28;20199;-72
2022/03/02 12:42:26;;;;;;;18.80;14.18;;;11.00;64.70;;;;;;5072794;28;20036;-73
2022/03/02 12:44:55;;;;;;;18.65;15.35;;;11.00;65.10;;;;;;5090290;28;20478;-72